Time,TemperatureF,DewpointF,PressureIn,WindDirection,WindDirectionDegrees,WindSpeedMPH,WindSpeedGustMPH,Humidity,HourlyPrecipIn,Conditions,Clouds,dailyrainin,SoftwareType,DateUTC
2013-02-24 00:04:00,40.5,-9.9,29.71,WNW,285,10.5,10.5,11,0.00,,---,0.00,VWS V14.01,2013-02-24 07:04:00,
2013-02-24 00:09:00,40.5,-9.9,29.71,West,278,7.6,12.3,11,0.00,,---,0.00,VWS V14.01,2013-02-24 07:09:00,
2013-02-24 00:15:00,40.6,-9.8,29.71,West,276,6.3,8.1,11,0.00,,---,0.00,VWS V14.01,2013-02-24 07:15:00,
2013-02-24 00:20:00,40.5,-9.9,29.71,WNW,293,8.3,8.3,11,0.00,,---,0.00,VWS V14.01,2013-02-24 07:20:00,
2013-02-24 00:25:00,40.3,-10.1,29.71,WNW,285,11.0,11.4,11,0.00,,---,0.00,VWS V14.01,2013-02-24 07:25:00,
2013-02-24 00:30:00,40.3,-10.1,29.71,West,274,9.6,9.6,11,0.00,,---,0.00,VWS V14.01,2013-02-24 07:30:00,
2013-02-24 00:35:00,40.3,-10.1,29.71,WSW,249,8.7,8.7,11,0.00,,---,0.00,VWS V14.01,2013-02-24 07:35:00,
2013-02-24 00:40:00,39.0,-6.1,29.71,WSW,257,5.4,5.4,14,0.00,,---,0.00,VWS V14.01,2013-02-24 07:40:00,
2013-02-24 00:45:00,38.8,-6.3,29.74,SSW,197,6.3,6.3,14,0.00,,---,0.00,VWS V14.01,2013-02-24 07:45:00,
2013-02-24 00:50:00,38.7,-6.4,29.74,West,260,8.1,8.1,14,0.00,,---,0.00,VWS V14.01,2013-02-24 07:50:00,
2013-02-24 00:55:00,38.5,-6.6,29.74,West,260,8.1,8.1,14,0.00,,---,0.00,VWS V14.01,2013-02-24 07:55:00,
2013-02-24 01:01:00,38.5,-6.6,29.71,West,271,8.1,8.1,14,0.00,,---,0.00,VWS V14.01,2013-02-24 08:01:00,
2013-02-24 01:06:00,38.5,-6.6,29.71,WSW,244,6.3,9.2,14,0.00,,---,0.00,VWS V14.01,2013-02-24 08:06:00,
2013-02-24 01:11:00,38.7,-6.4,29.71,West,266,8.3,8.3,14,0.00,,---,0.00,VWS V14.01,2013-02-24 08:11:00,
2013-02-24 01:16:00,38.7,-6.4,29.71,West,263,8.7,8.7,14,0.00,,---,0.00,VWS V14.01,2013-02-24 08:16:00,
2013-02-24 01:21:00,38.7,-6.4,29.71,West,262,5.8,9.2,14,0.00,,---,0.00,VWS V14.01,2013-02-24 08:21:00,
2013-02-24 01:26:00,38.7,-6.4,29.71,West,261,5.4,5.4,14,0.00,,---,0.00,VWS V14.01,2013-02-24 08:26:00,
2013-02-24 01:31:00,38.8,-6.3,29.71,West,269,3.6,3.6,14,0.00,,---,0.00,VWS V14.01,2013-02-24 08:31:00,
2013-02-24 01:36:00,38.8,-6.3,29.71,SW,214,5.4,5.4,14,0.00,,---,0.00,VWS V14.01,2013-02-24 08:36:00,
2013-02-24 01:41:00,38.8,-6.3,29.71,West,268,14.5,14.5,14,0.00,,---,0.00,VWS V14.01,2013-02-24 08:41:00,
2013-02-24 01:46:00,38.8,-6.3,29.71,West,270,12.8,12.8,14,0.00,,---,0.00,VWS V14.01,2013-02-24 08:46:00,
2013-02-24 01:51:00,38.5,-6.6,29.71,West,270,12.8,12.8,14,0.00,,---,0.00,VWS V14.01,2013-02-24 08:51:00,
2013-02-24 01:56:00,38.5,-6.6,29.71,West,271,11.0,11.0,14,0.00,,---,0.00,VWS V14.01,2013-02-24 08:56:00,
2013-02-24 02:01:00,38.3,-6.7,29.71,WNW,283,6.3,6.3,14,0.00,,---,0.00,VWS V14.01,2013-02-24 09:01:00,
2013-02-24 02:06:00,38.1,-6.9,29.71,West,272,8.1,8.1,14,0.00,,---,0.00,VWS V14.01,2013-02-24 09:06:00,
2013-02-24 02:11:00,38.1,-6.9,29.71,WSW,248,7.6,7.6,14,0.00,,---,0.00,VWS V14.01,2013-02-24 09:11:00,
2013-02-24 02:16:00,37.9,-7.0,29.71,West,267,10.1,10.1,14,0.00,,---,0.00,VWS V14.01,2013-02-24 09:16:00,
2013-02-24 02:21:00,37.9,-7.0,29.71,West,262,8.1,8.1,14,0.00,,---,0.00,VWS V14.01,2013-02-24 09:21:00,
2013-02-24 02:26:00,37.9,-7.0,29.71,WSW,255,2.7,2.7,14,0.00,,---,0.00,VWS V14.01,2013-02-24 09:26:00,
2013-02-24 02:31:00,37.9,-7.0,29.71,SW,219,3.6,5.8,14,0.00,,---,0.00,VWS V14.01,2013-02-24 09:31:00,
2013-02-24 02:37:00,37.9,-7.0,29.71,SSW,197,0.0,0.0,14,0.00,,---,0.00,VWS V14.01,2013-02-24 09:37:00,
2013-02-24 02:42:00,37.6,-7.3,29.68,SSE,164,3.6,3.6,14,0.00,,---,0.00,VWS V14.01,2013-02-24 09:42:00,
2013-02-24 02:47:00,37.6,-7.3,29.68,SSE,164,3.1,3.1,14,0.00,,---,0.00,VWS V14.01,2013-02-24 09:47:00,
2013-02-24 02:52:00,37.6,-7.3,29.68,SSE,153,0.0,0.0,14,0.00,,---,0.00,VWS V14.01,2013-02-24 09:52:00,
2013-02-24 02:57:00,37.6,-7.3,29.68,SSE,156,0.0,0.0,14,0.00,,---,0.00,VWS V14.01,2013-02-24 09:57:00,
2013-02-24 03:02:00,37.4,-4.7,29.68,SE,144,5.4,5.4,16,0.00,,---,0.00,VWS V14.01,2013-02-24 10:02:00,
2013-02-24 03:07:00,37.4,-7.4,29.68,SE,140,0.0,0.0,14,0.00,,---,0.00,VWS V14.01,2013-02-24 10:07:00,
2013-02-24 03:12:00,37.4,-7.4,29.65,South,172,0.0,0.0,14,0.00,,---,0.00,VWS V14.01,2013-02-24 10:12:00,
2013-02-24 03:17:00,37.4,-7.4,29.65,SSE,156,0.0,0.0,14,0.00,,---,0.00,VWS V14.01,2013-02-24 10:17:00,
2013-02-24 03:22:00,37.4,-7.4,29.65,SSE,156,0.0,0.0,14,0.00,,---,0.00,VWS V14.01,2013-02-24 10:22:00,
2013-02-24 03:27:00,37.2,-7.6,29.65,SSE,156,0.0,0.0,14,0.00,,---,0.00,VWS V14.01,2013-02-24 10:27:00,
2013-02-24 03:32:00,37.0,-7.7,29.65,NE,56,0.0,0.0,14,0.00,,---,0.00,VWS V14.01,2013-02-24 10:32:00,
2013-02-24 03:37:00,37.0,-7.7,29.65,ENE,76,5.4,6.7,14,0.00,,---,0.00,VWS V14.01,2013-02-24 10:37:00,
2013-02-24 03:42:00,37.0,-7.7,29.65,ENE,65,3.1,5.8,14,0.00,,---,0.00,VWS V14.01,2013-02-24 10:42:00,
2013-02-24 03:47:00,35.4,11.1,29.65,NE,36,5.8,5.8,36,0.00,,---,0.00,VWS V14.01,2013-02-24 10:47:00,
2013-02-24 03:52:00,34.9,13.0,29.65,NNE,22,2.2,2.2,40,0.00,,---,0.00,VWS V14.01,2013-02-24 10:52:00,
2013-02-24 03:57:00,34.7,12.9,29.65,NNE,22,0.0,0.0,40,0.00,,---,0.00,VWS V14.01,2013-02-24 10:57:00,
2013-02-24 04:02:00,34.3,12.5,29.65,NNE,22,0.0,0.0,40,0.00,,---,0.00,VWS V14.01,2013-02-24 11:02:00,
2013-02-24 04:07:00,34.3,12.5,29.65,NNE,22,0.0,0.0,40,0.00,,---,0.00,VWS V14.01,2013-02-24 11:07:00,
2013-02-24 04:12:00,34.3,12.5,29.65,NNE,22,0.0,0.0,40,0.00,,---,0.00,VWS V14.01,2013-02-24 11:12:00,
2013-02-24 04:17:00,33.3,12.1,29.65,NNE,22,0.0,0.0,41,0.00,,---,0.00,VWS V14.01,2013-02-24 11:17:00,
2013-02-24 04:22:00,32.7,11.6,29.65,NNE,22,0.0,0.0,41,0.00,,---,0.00,VWS V14.01,2013-02-24 11:22:00,
2013-02-24 04:27:00,32.7,11.6,29.65,NNE,22,0.0,0.0,41,0.00,,---,0.00,VWS V14.01,2013-02-24 11:27:00,
2013-02-24 04:32:00,31.8,10.8,29.65,NNE,22,0.0,0.0,41,0.00,,---,0.00,VWS V14.01,2013-02-24 11:32:00,
2013-02-24 04:37:00,31.5,12.1,29.65,SW,224,0.0,0.0,44,0.00,,---,0.00,VWS V14.01,2013-02-24 11:37:00,
2013-02-24 04:43:00,31.5,12.1,29.65,SSW,213,0.0,0.0,44,0.00,,---,0.00,VWS V14.01,2013-02-24 11:43:00,
2013-02-24 04:48:00,31.5,12.1,29.65,SW,232,5.8,5.8,44,0.00,,---,0.00,VWS V14.01,2013-02-24 11:48:00,
2013-02-24 04:53:00,31.5,12.1,29.65,SW,223,3.6,4.9,44,0.00,,---,0.00,VWS V14.01,2013-02-24 11:53:00,
2013-02-24 04:58:00,31.5,12.1,29.65,SW,218,0.0,0.0,44,0.00,,---,0.00,VWS V14.01,2013-02-24 11:58:00,
2013-02-24 05:03:00,31.3,11.4,29.65,SW,225,0.0,0.0,43,0.00,,---,0.00,VWS V14.01,2013-02-24 12:03:00,
2013-02-24 05:08:00,31.3,11.4,29.65,SW,220,0.0,0.0,43,0.00,,---,0.00,VWS V14.01,2013-02-24 12:08:00,
2013-02-24 05:13:00,31.3,11.4,29.65,SW,217,0.0,0.0,43,0.00,,---,0.00,VWS V14.01,2013-02-24 12:13:00,
2013-02-24 05:18:00,31.3,11.4,29.65,SW,217,0.0,0.0,43,0.00,,---,0.00,VWS V14.01,2013-02-24 12:18:00,
2013-02-24 05:23:00,31.3,11.4,29.65,SW,217,0.0,0.0,43,0.00,,---,0.00,VWS V14.01,2013-02-24 12:23:00,
2013-02-24 05:28:00,30.4,10.1,29.65,SW,217,0.0,0.0,42,0.00,,---,0.00,VWS V14.01,2013-02-24 12:28:00,
2013-02-24 05:33:00,30.4,10.1,29.65,WSW,238,0.0,0.0,42,0.00,,---,0.00,VWS V14.01,2013-02-24 12:33:00,
2013-02-24 05:39:00,30.4,10.1,29.65,West,278,0.0,0.0,42,0.00,,---,0.00,VWS V14.01,2013-02-24 12:39:00,
2013-02-24 05:44:00,30.4,10.1,29.65,NW,311,0.0,0.0,42,0.00,,---,0.00,VWS V14.01,2013-02-24 12:44:00,
2013-02-24 05:49:00,30.2,9.4,29.65,WNW,285,0.0,0.0,41,0.00,,---,0.00,VWS V14.01,2013-02-24 12:49:00,
2013-02-24 05:54:00,31.1,6.0,29.65,West,271,6.3,6.3,34,0.00,,---,0.00,VWS V14.01,2013-02-24 12:54:00,
2013-02-24 05:59:00,32.2,5.0,29.65,West,272,7.6,7.6,31,0.00,,---,0.00,VWS V14.01,2013-02-24 12:59:00,
2013-02-24 06:04:00,32.7,4.7,29.65,WNW,292,6.3,7.6,30,0.00,,---,0.00,VWS V14.01,2013-02-24 13:04:00,
2013-02-24 06:09:00,32.7,4.7,29.65,WNW,284,5.4,5.4,30,0.00,,---,0.00,VWS V14.01,2013-02-24 13:09:00,
2013-02-24 06:14:00,32.5,3.1,29.65,WNW,288,6.3,6.3,28,0.00,,---,0.00,VWS V14.01,2013-02-24 13:14:00,
2013-02-24 06:19:00,32.5,3.1,29.65,West,277,5.4,5.8,28,0.00,,---,0.00,VWS V14.01,2013-02-24 13:19:00,
2013-02-24 06:24:00,32.5,0.6,29.68,NW,308,5.4,6.3,25,0.00,,---,0.00,VWS V14.01,2013-02-24 13:24:00,
2013-02-24 06:29:00,32.5,-1.1,29.68,WNW,285,10.1,10.1,23,0.00,,---,0.00,VWS V14.01,2013-02-24 13:29:00,
2013-02-24 06:35:00,32.7,-6.1,29.68,WNW,293,7.6,7.6,18,0.00,,---,0.00,VWS V14.01,2013-02-24 13:35:00,
2013-02-24 06:40:00,32.7,-6.1,29.68,WNW,286,7.6,7.6,18,0.00,,---,0.00,VWS V14.01,2013-02-24 13:40:00,
2013-02-24 06:45:00,32.9,-9.7,29.68,WNW,290,3.6,6.3,15,0.00,,---,0.00,VWS V14.01,2013-02-24 13:45:00,
2013-02-24 06:50:00,32.7,-9.8,29.68,WNW,290,4.0,5.4,15,0.00,,---,0.00,VWS V14.01,2013-02-24 13:50:00,
2013-02-24 06:55:00,32.7,-9.8,29.68,WNW,296,3.6,3.6,15,0.00,,---,0.00,VWS V14.01,2013-02-24 13:55:00,
2013-02-24 07:00:00,32.5,-10.0,29.68,WNW,300,4.0,4.0,15,0.00,,---,0.00,VWS V14.01,2013-02-24 14:00:00,
2013-02-24 07:05:00,32.2,-10.3,29.68,West,280,7.6,8.7,15,0.00,,---,0.00,VWS V14.01,2013-02-24 14:05:00,
2013-02-24 07:10:00,32.4,-10.1,29.68,West,272,5.4,5.4,15,0.00,,---,0.00,VWS V14.01,2013-02-24 14:10:00,
2013-02-24 07:15:00,32.4,-13.0,29.68,WNW,285,4.0,4.0,13,0.00,,---,0.00,VWS V14.01,2013-02-24 14:15:00,
2013-02-24 07:20:00,32.2,-13.1,29.68,NW,307,5.8,5.8,13,0.00,,---,0.00,VWS V14.01,2013-02-24 14:20:00,
2013-02-24 07:25:00,32.2,-13.1,29.68,WNW,291,5.4,5.4,13,0.00,,---,0.00,VWS V14.01,2013-02-24 14:25:00,
2013-02-24 07:30:00,32.2,-13.1,29.68,West,277,8.1,8.1,13,0.00,,---,0.00,VWS V14.01,2013-02-24 14:30:00,
2013-02-24 07:36:00,32.4,-13.0,29.68,West,278,5.8,5.8,13,0.00,,---,0.00,VWS V14.01,2013-02-24 14:36:00,
2013-02-24 07:41:00,32.5,-12.8,29.68,West,280,6.3,6.3,13,0.00,,---,0.00,VWS V14.01,2013-02-24 14:41:00,
2013-02-24 07:46:00,32.7,-12.7,29.68,West,278,4.5,5.8,13,0.00,,---,0.00,VWS V14.01,2013-02-24 14:46:00,
2013-02-24 07:51:00,32.9,-12.6,29.68,West,270,6.3,6.7,13,0.00,,---,0.00,VWS V14.01,2013-02-24 14:51:00,
2013-02-24 07:56:00,33.3,-12.3,29.68,West,279,6.3,6.3,13,0.00,,---,0.00,VWS V14.01,2013-02-24 14:56:00,
2013-02-24 08:01:00,33.3,-12.3,29.71,NW,314,6.3,6.3,13,0.00,,---,0.00,VWS V14.01,2013-02-24 15:01:00,
2013-02-24 08:06:00,33.4,-12.1,29.71,WNW,303,4.0,5.4,13,0.00,,---,0.00,VWS V14.01,2013-02-24 15:06:00,
2013-02-24 08:11:00,33.4,-12.1,29.71,NW,304,5.4,5.4,13,0.00,,---,0.00,VWS V14.01,2013-02-24 15:11:00,
2013-02-24 08:16:00,33.4,-12.1,29.71,WNW,301,8.3,8.3,13,0.00,,---,0.00,VWS V14.01,2013-02-24 15:16:00,
2013-02-24 08:21:00,34.2,-13.1,29.71,WNW,287,7.6,7.6,12,0.00,,---,0.00,VWS V14.01,2013-02-24 15:21:00,
2013-02-24 08:26:00,35.8,-11.9,29.71,WSW,257,15.0,15.0,12,0.00,,---,0.00,VWS V14.01,2013-02-24 15:26:00,
2013-02-24 08:31:00,36.7,-11.1,29.71,West,265,10.5,10.5,12,0.00,,---,0.00,VWS V14.01,2013-02-24 15:31:00,
2013-02-24 08:37:00,36.9,-11.0,29.71,West,263,13.2,13.2,12,0.00,,---,0.00,VWS V14.01,2013-02-24 15:37:00,
2013-02-24 08:42:00,37.4,-12.3,29.71,WNW,282,10.5,10.5,11,0.00,,---,0.00,VWS V14.01,2013-02-24 15:42:00,
2013-02-24 08:47:00,37.6,-12.2,29.71,West,272,8.7,8.7,11,0.00,,---,0.00,VWS V14.01,2013-02-24 15:47:00,
2013-02-24 08:52:00,37.9,-11.9,29.71,West,266,16.8,16.8,11,0.00,,---,0.00,VWS V14.01,2013-02-24 15:52:00,
2013-02-24 08:57:00,38.1,-11.8,29.71,WNW,288,9.2,9.2,11,0.00,,---,0.00,VWS V14.01,2013-02-24 15:57:00,
2013-02-24 09:02:00,38.1,-11.8,29.71,WNW,283,10.5,16.8,11,0.00,,---,0.00,VWS V14.01,2013-02-24 16:02:00,
2013-02-24 09:07:00,38.3,-11.6,29.71,WSW,243,15.4,15.4,11,0.00,,---,0.00,VWS V14.01,2013-02-24 16:07:00,
2013-02-24 09:12:00,38.3,-11.6,29.71,West,275,8.3,8.3,11,0.00,,---,0.00,VWS V14.01,2013-02-24 16:12:00,
2013-02-24 09:17:00,38.8,-11.2,29.71,WNW,291,7.6,11.0,11,0.00,,---,0.00,VWS V14.01,2013-02-24 16:17:00,
2013-02-24 09:22:00,39.4,-10.8,29.71,WNW,300,10.1,10.1,11,0.00,,---,0.00,VWS V14.01,2013-02-24 16:22:00,
2013-02-24 09:27:00,39.6,-10.6,29.71,West,280,15.4,15.4,11,0.00,,---,0.00,VWS V14.01,2013-02-24 16:27:00,
2013-02-24 09:32:00,39.6,-10.6,29.71,NW,311,10.5,14.1,11,0.00,,---,0.00,VWS V14.01,2013-02-24 16:32:00,
2013-02-24 09:37:00,39.9,-10.3,29.71,WNW,294,10.5,10.5,11,0.00,,---,0.00,VWS V14.01,2013-02-24 16:37:00,
2013-02-24 09:42:00,40.6,-9.8,29.71,WNW,285,13.2,13.2,11,0.00,,---,0.00,VWS V14.01,2013-02-24 16:42:00,
2013-02-24 09:47:00,40.6,-9.8,29.71,WNW,293,12.8,12.8,11,0.00,,---,0.00,VWS V14.01,2013-02-24 16:47:00,
2013-02-24 09:52:00,40.8,-9.6,29.71,West,268,8.7,9.2,11,0.00,,---,0.00,VWS V14.01,2013-02-24 16:52:00,
2013-02-24 09:58:00,40.8,-9.6,29.71,NW,317,8.1,8.3,11,0.00,,---,0.00,VWS V14.01,2013-02-24 16:58:00,
2013-02-24 10:03:00,41.0,-9.5,29.71,NW,308,10.5,10.5,11,0.00,,---,0.00,VWS V14.01,2013-02-24 17:03:00,
2013-02-24 10:08:00,41.2,-9.3,29.71,NNW,338,8.7,8.7,11,0.00,,---,0.00,VWS V14.01,2013-02-24 17:08:00,
2013-02-24 10:13:00,41.4,-9.2,29.71,NNW,332,11.0,11.0,11,0.00,,---,0.00,VWS V14.01,2013-02-24 17:13:00,
2013-02-24 10:18:00,41.2,-9.3,29.71,NNW,344,8.7,8.7,11,0.00,,---,0.00,VWS V14.01,2013-02-24 17:18:00,
2013-02-24 10:23:00,41.5,-9.1,29.71,NW,324,12.3,12.3,11,0.00,,---,0.00,VWS V14.01,2013-02-24 17:23:00,
2013-02-24 10:28:00,42.1,-8.6,29.74,NW,309,8.1,8.7,11,0.00,,---,0.00,VWS V14.01,2013-02-24 17:28:00,
2013-02-24 10:33:00,41.7,-8.9,29.74,West,281,15.4,15.4,11,0.00,,---,0.00,VWS V14.01,2013-02-24 17:33:00,
2013-02-24 10:38:00,41.9,-8.8,29.74,WNW,293,10.5,10.5,11,0.00,,---,0.00,VWS V14.01,2013-02-24 17:38:00,
2013-02-24 10:43:00,43.0,-9.9,29.74,WNW,300,11.0,11.0,10,0.00,,---,0.00,VWS V14.01,2013-02-24 17:43:00,
2013-02-24 10:48:00,43.7,-9.3,29.71,NW,312,13.2,13.2,10,0.00,,---,0.00,VWS V14.01,2013-02-24 17:48:00,
2013-02-24 10:54:00,43.3,-9.6,29.71,NW,324,10.5,10.5,10,0.00,,---,0.00,VWS V14.01,2013-02-24 17:54:00,
2013-02-24 10:59:00,43.7,-9.3,29.74,NW,304,6.3,9.6,10,0.00,,---,0.00,VWS V14.01,2013-02-24 17:59:00,
2013-02-24 11:04:00,44.6,-8.6,29.74,NW,313,12.8,12.8,10,0.00,,---,0.00,VWS V14.01,2013-02-24 18:04:00,
2013-02-24 11:09:00,44.4,-8.8,29.74,NW,318,8.1,8.1,10,0.00,,---,0.00,VWS V14.01,2013-02-24 18:09:00,
2013-02-24 11:14:00,43.7,-9.3,29.74,WNW,302,19.7,19.7,10,0.00,,---,0.00,VWS V14.01,2013-02-24 18:14:00,
2013-02-24 11:19:00,43.2,-9.7,29.74,West,269,9.6,9.6,10,0.00,,---,0.00,VWS V14.01,2013-02-24 18:19:00,
2013-02-24 11:24:00,44.1,-9.0,29.74,NW,313,12.8,12.8,10,0.00,,---,0.00,VWS V14.01,2013-02-24 18:24:00,
2013-02-24 11:29:00,44.4,-8.8,29.74,NNW,330,11.0,11.0,10,0.00,,---,0.00,VWS V14.01,2013-02-24 18:29:00,
2013-02-24 11:34:00,44.6,-8.6,29.74,NW,321,8.7,8.7,10,0.00,,---,0.00,VWS V14.01,2013-02-24 18:34:00,
2013-02-24 11:39:00,45.1,-8.2,29.74,West,274,8.7,8.7,10,0.00,,---,0.00,VWS V14.01,2013-02-24 18:39:00,
2013-02-24 11:44:00,45.5,-7.9,29.74,WSW,257,15.0,15.0,10,0.00,,---,0.00,VWS V14.01,2013-02-24 18:44:00,
2013-02-24 11:49:00,44.8,-8.5,29.74,WNW,303,12.8,12.8,10,0.00,,---,0.00,VWS V14.01,2013-02-24 18:49:00,
2013-02-24 11:55:00,44.8,-8.5,29.74,NW,321,9.6,11.0,10,0.00,,---,0.00,VWS V14.01,2013-02-24 18:55:00,
2013-02-24 12:00:00,45.7,-7.8,29.74,North,353,11.0,11.0,10,0.00,,---,0.00,VWS V14.01,2013-02-24 19:00:00,
2013-02-24 12:05:00,46.6,-9.2,29.71,West,276,6.3,6.3,9,0.00,,---,0.00,VWS V14.01,2013-02-24 19:05:00,
2013-02-24 12:10:00,46.8,-9.1,29.71,NW,315,11.9,11.9,9,0.00,,---,0.00,VWS V14.01,2013-02-24 19:10:00,
2013-02-24 12:15:00,46.6,-9.2,29.71,WNW,282,11.9,11.9,9,0.00,,---,0.00,VWS V14.01,2013-02-24 19:15:00,
2013-02-24 12:20:00,46.6,-9.2,29.71,NNW,344,6.3,6.3,9,0.00,,---,0.00,VWS V14.01,2013-02-24 19:20:00,
2013-02-24 12:25:00,46.8,-9.1,29.71,WNW,302,10.1,10.5,9,0.00,,---,0.00,VWS V14.01,2013-02-24 19:25:00,
2013-02-24 12:30:00,45.5,-7.9,29.71,West,281,11.9,11.9,10,0.00,,---,0.00,VWS V14.01,2013-02-24 19:30:00,
2013-02-24 12:35:00,46.0,-7.5,29.71,NW,307,8.7,8.7,10,0.00,,---,0.00,VWS V14.01,2013-02-24 19:35:00,
2013-02-24 12:40:00,46.2,-7.4,29.71,West,266,12.3,12.3,10,0.00,,---,0.00,VWS V14.01,2013-02-24 19:40:00,
2013-02-24 12:46:00,46.6,-9.2,29.71,West,259,10.5,10.5,9,0.00,,---,0.00,VWS V14.01,2013-02-24 19:46:00,
2013-02-24 12:51:00,46.4,-9.4,29.71,NW,315,10.1,10.1,9,0.00,,---,0.00,VWS V14.01,2013-02-24 19:51:00,
2013-02-24 12:56:00,47.3,-8.7,29.71,West,270,15.0,15.0,9,0.00,,---,0.00,VWS V14.01,2013-02-24 19:56:00,
2013-02-24 13:01:00,47.5,-8.5,29.71,West,273,13.2,13.2,9,0.00,,---,0.00,VWS V14.01,2013-02-24 20:01:00,
2013-02-24 13:06:00,46.8,-9.1,29.71,NW,325,12.3,12.3,9,0.00,,---,0.00,VWS V14.01,2013-02-24 20:06:00,
2013-02-24 13:11:00,46.2,-7.4,29.71,WNW,300,8.7,8.7,10,0.00,,---,0.00,VWS V14.01,2013-02-24 20:11:00,
2013-02-24 13:16:00,46.6,-9.2,29.71,NW,309,11.0,13.2,9,0.00,,---,0.00,VWS V14.01,2013-02-24 20:16:00,
2013-02-24 13:21:00,46.9,-8.9,29.71,West,269,10.1,10.1,9,0.00,,---,0.00,VWS V14.01,2013-02-24 20:21:00,
2013-02-24 13:26:00,46.9,-8.9,29.71,NW,307,9.6,13.6,9,0.00,,---,0.00,VWS V14.01,2013-02-24 20:26:00,
2013-02-24 13:31:00,46.9,-8.9,29.71,WNW,299,15.4,15.4,9,0.00,,---,0.00,VWS V14.01,2013-02-24 20:31:00,
2013-02-24 13:36:00,47.7,-8.4,29.71,WNW,299,10.5,10.5,9,0.00,,---,0.00,VWS V14.01,2013-02-24 20:36:00,
2013-02-24 13:41:00,48.2,-8.0,29.71,WNW,285,10.5,10.5,9,0.00,,---,0.00,VWS V14.01,2013-02-24 20:41:00,
2013-02-24 13:47:00,48.0,-8.1,29.71,NW,314,8.7,10.5,9,0.00,,---,0.00,VWS V14.01,2013-02-24 20:47:00,
2013-02-24 13:52:00,47.5,-8.5,29.71,WNW,295,15.9,15.9,9,0.00,,---,0.00,VWS V14.01,2013-02-24 20:52:00,
2013-02-24 13:57:00,47.7,-8.4,29.71,NW,305,11.4,11.4,9,0.00,,---,0.00,VWS V14.01,2013-02-24 20:57:00,
2013-02-24 14:02:00,46.8,-9.1,29.71,WNW,303,15.0,15.0,9,0.00,,---,0.00,VWS V14.01,2013-02-24 21:02:00,
2013-02-24 14:07:00,47.1,-8.8,29.71,West,274,15.0,15.0,9,0.00,,---,0.00,VWS V14.01,2013-02-24 21:07:00,
2013-02-24 14:12:00,46.2,-7.4,29.71,WNW,286,15.4,15.4,10,0.00,,---,0.00,VWS V14.01,2013-02-24 21:12:00,
2013-02-24 14:17:00,46.0,-7.5,29.71,NW,304,11.9,11.9,10,0.00,,---,0.00,VWS V14.01,2013-02-24 21:17:00,
2013-02-24 14:22:00,45.7,-7.8,29.71,NW,321,8.7,8.7,10,0.00,,---,0.00,VWS V14.01,2013-02-24 21:22:00,
2013-02-24 14:27:00,46.2,-7.4,29.71,NW,316,10.5,12.3,10,0.00,,---,0.00,VWS V14.01,2013-02-24 21:27:00,
2013-02-24 14:33:00,47.7,-8.4,29.71,West,281,16.8,16.8,9,0.00,,---,0.00,VWS V14.01,2013-02-24 21:33:00,
2013-02-24 14:38:00,48.6,-7.7,29.71,NW,323,16.3,16.3,9,0.00,,---,0.00,VWS V14.01,2013-02-24 21:38:00,
2013-02-24 14:43:00,47.5,-8.5,29.71,WNW,283,11.0,11.0,9,0.00,,---,0.00,VWS V14.01,2013-02-24 21:43:00,
2013-02-24 14:48:00,47.1,-8.8,29.71,NNW,327,6.3,6.3,9,0.00,,---,0.00,VWS V14.01,2013-02-24 21:48:00,
2013-02-24 14:53:00,48.2,-8.0,29.71,NW,322,15.4,15.4,9,0.00,,---,0.00,VWS V14.01,2013-02-24 21:53:00,
2013-02-24 14:58:00,48.0,-8.1,29.71,NW,306,10.5,10.5,9,0.00,,---,0.00,VWS V14.01,2013-02-24 21:58:00,
2013-02-24 15:03:00,48.4,-7.8,29.71,West,277,15.4,15.4,9,0.00,,---,0.00,VWS V14.01,2013-02-24 22:03:00,
2013-02-24 15:08:00,47.1,-8.8,29.71,NNW,335,8.3,8.3,9,0.00,,---,0.00,VWS V14.01,2013-02-24 22:08:00,
2013-02-24 15:13:00,46.8,-9.1,29.71,WNW,289,10.1,11.0,9,0.00,,---,0.00,VWS V14.01,2013-02-24 22:13:00,
2013-02-24 15:19:00,48.0,-8.1,29.71,WNW,296,15.4,15.4,9,0.00,,---,0.00,VWS V14.01,2013-02-24 22:19:00,
2013-02-24 15:24:00,48.7,-7.6,29.71,WNW,284,13.2,13.2,9,0.00,,---,0.00,VWS V14.01,2013-02-24 22:24:00,
2013-02-24 15:29:00,48.6,-7.7,29.71,NW,306,14.5,15.0,9,0.00,,---,0.00,VWS V14.01,2013-02-24 22:29:00,
2013-02-24 15:34:00,48.7,-7.6,29.71,NW,310,11.0,11.0,9,0.00,,---,0.00,VWS V14.01,2013-02-24 22:34:00,
2013-02-24 15:39:00,48.4,-7.8,29.71,NW,310,11.0,11.0,9,0.00,,---,0.00,VWS V14.01,2013-02-24 22:39:00,
2013-02-24 15:44:00,48.6,-7.7,29.71,WSW,251,10.5,11.0,9,0.00,,---,0.00,VWS V14.01,2013-02-24 22:44:00,
2013-02-24 15:49:00,48.7,-7.6,29.71,WNW,301,12.8,12.8,9,0.00,,---,0.00,VWS V14.01,2013-02-24 22:49:00,
2013-02-24 15:54:00,48.7,-7.6,29.71,West,270,10.5,10.5,9,0.00,,---,0.00,VWS V14.01,2013-02-24 22:54:00,
2013-02-24 15:59:00,48.6,-7.7,29.71,West,277,13.2,13.2,9,0.00,,---,0.00,VWS V14.01,2013-02-24 22:59:00,
2013-02-24 16:04:00,48.6,-7.7,29.71,West,278,16.8,16.8,9,0.00,,---,0.00,VWS V14.01,2013-02-24 23:04:00,
2013-02-24 16:09:00,48.6,-7.7,29.71,West,272,12.8,12.8,9,0.00,,---,0.00,VWS V14.01,2013-02-24 23:09:00,
2013-02-24 16:14:00,48.6,-7.7,29.71,WNW,289,10.1,10.1,9,0.00,,---,0.00,VWS V14.01,2013-02-24 23:14:00,
2013-02-24 16:19:00,48.7,-7.6,29.74,West,274,12.8,13.2,9,0.00,,---,0.00,VWS V14.01,2013-02-24 23:19:00,
2013-02-24 16:24:00,48.4,-7.8,29.74,NW,310,11.0,13.2,9,0.00,,---,0.00,VWS V14.01,2013-02-24 23:24:00,
2013-02-24 16:30:00,48.4,-7.8,29.74,NW,310,8.1,8.1,9,0.00,,---,0.00,VWS V14.01,2013-02-24 23:30:00,
2013-02-24 16:35:00,48.2,-8.0,29.74,WNW,285,11.0,11.0,9,0.00,,---,0.00,VWS V14.01,2013-02-24 23:35:00,
2013-02-24 16:40:00,48.4,-7.8,29.74,NW,312,5.8,5.8,9,0.00,,---,0.00,VWS V14.01,2013-02-24 23:40:00,
2013-02-24 16:45:00,48.6,-7.7,29.74,West,281,15.4,15.4,9,0.00,,---,0.00,VWS V14.01,2013-02-24 23:45:00,
2013-02-24 16:50:00,48.7,-7.6,29.74,West,277,14.1,14.1,9,0.00,,---,0.00,VWS V14.01,2013-02-24 23:50:00,
2013-02-24 16:55:00,48.7,-7.6,29.74,NW,309,11.0,11.0,9,0.00,,---,0.00,VWS V14.01,2013-02-24 23:55:00,
2013-02-24 17:00:00,48.2,-8.0,29.74,West,268,13.2,15.4,9,0.00,,---,0.00,VWS V14.01,2013-02-25 00:00:00,
2013-02-24 17:05:00,48.0,-8.1,29.74,WNW,283,10.5,12.8,9,0.00,,---,0.00,VWS V14.01,2013-02-25 00:05:00,
2013-02-24 17:10:00,47.1,-8.8,29.74,West,267,8.1,8.1,9,0.00,,---,0.00,VWS V14.01,2013-02-25 00:10:00,
2013-02-24 17:16:00,46.9,-8.9,29.74,West,266,16.8,18.3,9,0.00,,---,0.00,VWS V14.01,2013-02-25 00:16:00,
2013-02-24 17:21:00,46.9,-8.9,29.74,WNW,290,8.1,11.0,9,0.00,,---,0.00,VWS V14.01,2013-02-25 00:21:00,
2013-02-24 17:26:00,46.8,-9.1,29.74,WNW,285,11.0,12.8,9,0.00,,---,0.00,VWS V14.01,2013-02-25 00:26:00,
2013-02-24 17:31:00,46.4,-9.4,29.77,NW,305,11.0,11.0,9,0.00,,---,0.00,VWS V14.01,2013-02-25 00:31:00,
2013-02-24 17:36:00,46.4,-9.4,29.77,WNW,290,8.3,8.3,9,0.00,,---,0.00,VWS V14.01,2013-02-25 00:36:00,
2013-02-24 17:41:00,46.4,-9.4,29.77,WNW,303,8.1,8.1,9,0.00,,---,0.00,VWS V14.01,2013-02-25 00:41:00,
2013-02-24 17:46:00,46.0,-7.5,29.77,West,278,14.1,14.1,10,0.00,,---,0.00,VWS V14.01,2013-02-25 00:46:00,
2013-02-24 17:51:00,45.5,-7.9,29.77,West,274,12.8,12.8,10,0.00,,---,0.00,VWS V14.01,2013-02-25 00:51:00,
2013-02-24 17:56:00,45.3,-8.1,29.77,West,279,10.1,11.0,10,0.00,,---,0.00,VWS V14.01,2013-02-25 00:56:00,
2013-02-24 18:01:00,45.0,-8.3,29.77,West,273,11.0,11.0,10,0.00,,---,0.00,VWS V14.01,2013-02-25 01:01:00,
2013-02-24 18:06:00,44.8,-8.5,29.77,WNW,283,8.3,8.7,10,0.00,,---,0.00,VWS V14.01,2013-02-25 01:06:00,
2013-02-24 18:12:00,44.8,-8.5,29.77,West,264,10.5,10.5,10,0.00,,---,0.00,VWS V14.01,2013-02-25 01:12:00,
2013-02-24 18:17:00,44.6,-8.6,29.77,WNW,290,8.7,13.2,10,0.00,,---,0.00,VWS V14.01,2013-02-25 01:17:00,
2013-02-24 18:22:00,44.4,-8.8,29.77,West,274,11.0,16.8,10,0.00,,---,0.00,VWS V14.01,2013-02-25 01:22:00,
2013-02-24 18:27:00,44.4,-8.8,29.77,WNW,289,10.1,15.0,10,0.00,,---,0.00,VWS V14.01,2013-02-25 01:27:00,
2013-02-24 18:32:00,44.4,-8.8,29.77,West,265,10.5,10.5,10,0.00,,---,0.00,VWS V14.01,2013-02-25 01:32:00,
2013-02-24 18:37:00,43.9,-9.2,29.77,West,274,10.1,10.1,10,0.00,,---,0.00,VWS V14.01,2013-02-25 01:37:00,
2013-02-24 18:42:00,43.7,-9.3,29.77,West,272,15.0,15.0,10,0.00,,---,0.00,VWS V14.01,2013-02-25 01:42:00,
2013-02-24 18:47:00,43.5,-9.4,29.77,WNW,295,8.3,11.0,10,0.00,,---,0.00,VWS V14.01,2013-02-25 01:47:00,
2013-02-24 18:52:00,43.5,-9.4,29.77,West,265,10.5,17.0,10,0.00,,---,0.00,VWS V14.01,2013-02-25 01:52:00,
2013-02-24 18:57:00,43.5,-9.4,29.77,West,279,10.5,10.5,10,0.00,,---,0.00,VWS V14.01,2013-02-25 01:57:00,
2013-02-24 19:02:00,43.5,-9.4,29.80,SW,230,10.1,12.8,10,0.00,,---,0.00,VWS V14.01,2013-02-25 02:02:00,
2013-02-24 19:08:00,43.5,-9.4,29.80,West,269,17.4,17.4,10,0.00,,---,0.00,VWS V14.01,2013-02-25 02:08:00,
2013-02-24 19:13:00,43.3,-9.6,29.80,WSW,254,10.5,11.0,10,0.00,,---,0.00,VWS V14.01,2013-02-25 02:13:00,
2013-02-24 19:18:00,43.3,-9.6,29.80,West,260,10.5,15.0,10,0.00,,---,0.00,VWS V14.01,2013-02-25 02:18:00,
2013-02-24 19:23:00,43.0,-9.9,29.80,West,262,11.4,11.4,10,0.00,,---,0.00,VWS V14.01,2013-02-25 02:23:00,
2013-02-24 19:28:00,43.0,-9.9,29.80,WSW,256,8.3,15.0,10,0.00,,---,0.00,VWS V14.01,2013-02-25 02:28:00,
2013-02-24 19:33:00,42.6,-8.2,29.80,WNW,287,12.3,12.3,11,0.00,,---,0.00,VWS V14.01,2013-02-25 02:33:00,
2013-02-24 19:38:00,42.4,-8.4,29.80,West,275,8.1,8.1,11,0.00,,---,0.00,VWS V14.01,2013-02-25 02:38:00,
2013-02-24 19:44:00,42.4,-8.4,29.80,NW,304,9.6,13.2,11,0.00,,---,0.00,VWS V14.01,2013-02-25 02:44:00,
2013-02-24 19:49:00,42.4,-8.4,29.80,West,265,8.1,8.7,11,0.00,,---,0.00,VWS V14.01,2013-02-25 02:49:00,
2013-02-24 19:54:00,42.3,-8.5,29.80,WNW,297,10.1,10.1,11,0.00,,---,0.00,VWS V14.01,2013-02-25 02:54:00,
2013-02-24 19:59:00,42.1,-8.6,29.80,WNW,285,13.2,13.2,11,0.00,,---,0.00,VWS V14.01,2013-02-25 02:59:00,
2013-02-24 20:04:00,41.9,-8.8,29.80,West,275,11.0,11.0,11,0.00,,---,0.00,VWS V14.01,2013-02-25 03:04:00,
2013-02-24 20:09:00,41.5,-9.1,29.80,West,276,9.6,9.6,11,0.00,,---,0.00,VWS V14.01,2013-02-25 03:09:00,
2013-02-24 20:14:00,41.7,-8.9,29.80,WNW,285,8.7,8.7,11,0.00,,---,0.00,VWS V14.01,2013-02-25 03:14:00,
2013-02-24 20:19:00,41.4,-9.2,29.80,West,259,8.7,12.8,11,0.00,,---,0.00,VWS V14.01,2013-02-25 03:19:00,
2013-02-24 20:25:00,41.2,-9.3,29.80,WNW,290,5.8,5.8,11,0.00,,---,0.00,VWS V14.01,2013-02-25 03:25:00,
2013-02-24 20:30:00,40.8,-9.6,29.80,West,260,10.5,10.5,11,0.00,,---,0.00,VWS V14.01,2013-02-25 03:30:00,
2013-02-24 20:35:00,40.8,-9.6,29.80,West,268,8.1,8.1,11,0.00,,---,0.00,VWS V14.01,2013-02-25 03:35:00,
2013-02-24 20:40:00,40.6,-9.8,29.83,West,270,5.8,5.8,11,0.00,,---,0.00,VWS V14.01,2013-02-25 03:40:00,
2013-02-24 20:45:00,40.5,-9.9,29.83,WSW,255,11.9,13.2,11,0.00,,---,0.00,VWS V14.01,2013-02-25 03:45:00,
2013-02-24 20:50:00,40.6,-9.8,29.83,West,265,11.0,11.0,11,0.00,,---,0.00,VWS V14.01,2013-02-25 03:50:00,
2013-02-24 20:55:00,40.6,-9.8,29.83,WNW,290,8.3,8.3,11,0.00,,---,0.00,VWS V14.01,2013-02-25 03:55:00,
2013-02-24 21:00:00,40.6,-9.8,29.83,West,275,8.7,12.8,11,0.00,,---,0.00,VWS V14.01,2013-02-25 04:00:00,
2013-02-24 21:06:00,41.0,-9.5,29.83,WSW,254,12.8,12.8,11,0.00,,---,0.00,VWS V14.01,2013-02-25 04:06:00,
2013-02-24 21:11:00,41.2,-9.3,29.83,WSW,253,8.1,10.1,11,0.00,,---,0.00,VWS V14.01,2013-02-25 04:11:00,
2013-02-24 21:16:00,40.8,-9.6,29.83,WSW,254,10.5,11.0,11,0.00,,---,0.00,VWS V14.01,2013-02-25 04:16:00,
2013-02-24 21:21:00,40.8,-9.6,29.83,NW,308,10.5,10.5,11,0.00,,---,0.00,VWS V14.01,2013-02-25 04:21:00,
2013-02-24 21:26:00,40.6,-9.8,29.83,West,279,8.1,8.1,11,0.00,,---,0.00,VWS V14.01,2013-02-25 04:26:00,
2013-02-24 21:31:00,40.6,-9.8,29.83,WSW,251,10.1,10.1,11,0.00,,---,0.00,VWS V14.01,2013-02-25 04:31:00,
2013-02-24 21:36:00,40.6,-9.8,29.83,WSW,257,7.6,10.5,11,0.00,,---,0.00,VWS V14.01,2013-02-25 04:36:00,
2013-02-24 21:42:00,40.6,-9.8,29.83,WNW,289,12.3,12.3,11,0.00,,---,0.00,VWS V14.01,2013-02-25 04:42:00,
2013-02-24 21:47:00,40.6,-9.8,29.83,West,265,12.8,12.8,11,0.00,,---,0.00,VWS V14.01,2013-02-25 04:47:00,
2013-02-24 21:52:00,40.5,-9.9,29.83,West,262,8.3,10.5,11,0.00,,---,0.00,VWS V14.01,2013-02-25 04:52:00,
2013-02-24 21:57:00,40.5,-9.9,29.83,West,265,7.6,11.0,11,0.00,,---,0.00,VWS V14.01,2013-02-25 04:57:00,
2013-02-24 22:00:00,40.3,-10.1,29.83,West,266,11.0,11.0,11,0.00,,---,0.00,VWS V14.01,2013-02-25 05:00:00,
2013-02-24 22:04:00,40.5,-9.9,29.83,West,271,10.1,12.3,11,0.00,,---,0.00,VWS V14.01,2013-02-25 05:04:00,
2013-02-24 22:09:00,40.5,-9.9,29.83,West,267,8.3,8.3,11,0.00,,---,0.00,VWS V14.01,2013-02-25 05:09:00,
2013-02-24 22:14:00,40.3,-10.1,29.83,West,265,7.6,7.6,11,0.00,,---,0.00,VWS V14.01,2013-02-25 05:14:00,
2013-02-24 22:19:00,40.1,-10.2,29.83,West,266,8.7,9.2,11,0.00,,---,0.00,VWS V14.01,2013-02-25 05:19:00,
2013-02-24 22:25:00,40.1,-10.2,29.83,West,265,8.7,11.4,11,0.00,,---,0.00,VWS V14.01,2013-02-25 05:25:00,
2013-02-24 22:30:00,39.9,-10.3,29.86,West,264,7.2,7.2,11,0.00,,---,0.00,VWS V14.01,2013-02-25 05:30:00,
2013-02-24 22:35:00,39.7,-10.5,29.86,West,279,11.0,11.0,11,0.00,,---,0.00,VWS V14.01,2013-02-25 05:35:00,
2013-02-24 22:40:00,39.9,-10.3,29.86,WSW,254,8.3,8.3,11,0.00,,---,0.00,VWS V14.01,2013-02-25 05:40:00,
2013-02-24 22:45:00,39.6,-10.6,29.86,West,269,7.6,7.6,11,0.00,,---,0.00,VWS V14.01,2013-02-25 05:45:00,
2013-02-24 22:50:00,39.4,-10.8,29.86,WSW,258,8.1,8.1,11,0.00,,---,0.00,VWS V14.01,2013-02-25 05:50:00,
2013-02-24 22:55:00,39.2,-10.9,29.86,West,273,5.4,5.4,11,0.00,,---,0.00,VWS V14.01,2013-02-25 05:55:00,
2013-02-24 23:00:00,39.0,-11.0,29.86,West,274,8.1,8.1,11,0.00,,---,0.00,VWS V14.01,2013-02-25 06:00:00,
2013-02-24 23:05:00,38.8,-11.2,29.86,West,274,7.6,8.7,11,0.00,,---,0.00,VWS V14.01,2013-02-25 06:05:00,
2013-02-24 23:10:00,38.8,-11.2,29.86,West,274,5.8,8.1,11,0.00,,---,0.00,VWS V14.01,2013-02-25 06:10:00,
2013-02-24 23:15:00,38.7,-11.3,29.86,West,266,5.4,6.3,11,0.00,,---,0.00,VWS V14.01,2013-02-25 06:15:00,
2013-02-24 23:20:00,38.3,-11.6,29.86,West,267,4.9,5.8,11,0.00,,---,0.00,VWS V14.01,2013-02-25 06:20:00,
2013-02-24 23:26:00,37.8,-12.0,29.86,West,272,4.0,4.9,11,0.00,,---,0.00,VWS V14.01,2013-02-25 06:26:00,
2013-02-24 23:31:00,37.4,-12.3,29.86,WNW,296,0.0,0.0,11,0.00,,---,0.00,VWS V14.01,2013-02-25 06:31:00,
2013-02-24 23:36:00,37.0,-10.9,29.86,WNW,295,0.0,0.0,12,0.00,,---,0.00,VWS V14.01,2013-02-25 06:36:00,
2013-02-24 23:41:00,36.7,-11.1,29.86,WNW,295,0.0,0.0,12,0.00,,---,0.00,VWS V14.01,2013-02-25 06:41:00,
2013-02-24 23:46:00,36.3,-11.4,29.86,WNW,295,0.0,0.0,12,0.00,,---,0.00,VWS V14.01,2013-02-25 06:46:00,
2013-02-24 23:51:00,36.1,-11.6,29.86,WNW,295,0.0,0.0,12,0.00,,---,0.00,VWS V14.01,2013-02-25 06:51:00,
2013-02-24 23:56:00,35.8,-11.9,29.86,WNW,296,0.0,0.0,12,0.00,,---,0.00,VWS V14.01,2013-02-25 06:56:00,